This is the latest recevied weather packets stored in our database for station/object KY0TEQ-13. If no packets are shown the sender has not sent any weather packets the latest 10 day(s).
| Time | Temp. | Humidity | Pressure | Rain* | Wind** | Luminosity | Snow |
|---|---|---|---|---|---|---|---|
| 1777694833 | 5° C | 59% | 1306 hPa | 0 mm | - | 0 W/m² | - |
| 1777694530 | 5.56° C | 57% | 1305.8 hPa | 0 mm | - | 0 W/m² | - |
| 1777694226 | 5.56° C | 56% | 1305.7 hPa | 0 mm | - | 0 W/m² | - |
| 1777693923 | 5.56° C | 55% | 1305.6 hPa | 0 mm | - | 0 W/m² | - |
| 1777693620 | 6.11° C | 54% | 1305.5 hPa | 0 mm | - | 0 W/m² | - |
| 1777693319 | 3.89° C | 58% | 1305.5 hPa | 0 mm | - | 0 W/m² | - |
| 1777693016 | 4.44° C | 57% | 1305.4 hPa | 0 mm | - | 0 W/m² | - |
| 1777692714 | 5° C | 56% | 1305.4 hPa | 0 mm | - | 0 W/m² | - |
| 1777692410 | 5.56° C | 54% | 1305 hPa | 0 mm | - | 0 W/m² | - |
| 1777692106 | 5.56° C | 54% | 1305.1 hPa | 0 mm | - | 0 W/m² | - |
| 1777691804 | 5.56° C | 54% | 1304.9 hPa | 0 mm | - | 0 W/m² | - |
| 1777691502 | 5.56° C | 54% | 1304.9 hPa | 0 mm | - | 0 W/m² | - |
| 1777691201 | 6.11° C | 53% | 1304.8 hPa | 0 mm | - | 0 W/m² | - |
| 1777690898 | 6.11° C | 52% | 1304.5 hPa | 0 mm | - | 0 W/m² | - |
| 1777690595 | 6.67° C | 51% | 1304.5 hPa | 0 mm | - | 0 W/m² | - |
| 1777690293 | 6.67° C | 51% | 1304.3 hPa | 0 mm | - | 0 W/m² | - |
| 1777689991 | 6.67° C | 51% | 1304.1 hPa | 0 mm | - | 0 W/m² | - |
| 1777689689 | 6.67° C | 51% | 1304.1 hPa | 0 mm | - | 0 W/m² | - |
| 1777689387 | 7.22° C | 50% | 1303.9 hPa | 0 mm | - | 0 W/m² | - |
| 1777689083 | 7.22° C | 50% | 1304 hPa | 0 mm | - | 0 W/m² | - |
| 1777688780 | 6.67° C | 52% | 1303.8 hPa | 0 mm | - | 0 W/m² | - |
| 1777687570 | 7.78° C | 50% | 1303.4 hPa | 0 mm | - | 1 W/m² | - |
| 1777672721 | 11.67° C | 37% | 1302 hPa | 0 mm | - | 442 W/m² | - |
| 1777672113 | 11.11° C | 40% | 1302.2 hPa | 0 mm | - | 232 W/m² | - |
| 1777670897 | 12.78° C | 33% | 1302.2 hPa | 0 mm | - | 203 W/m² | - |
* Rain latest hour (hover to see other rain measurements)
** Current wind speed in m/s (hover to see current wind gust speed)